sensor_id;sensor_type;location;lat;lon;timestamp;P1;durP1;ratioP1;P2;durP2;ratioP2
76292;SDS011;67256;51.154;4.164;2023-12-07T00:01:16;99.68;;;18.75;;
76292;SDS011;67256;51.154;4.164;2023-12-07T00:03:45;80.30;;;18.48;;
76292;SDS011;67256;51.154;4.164;2023-12-07T00:06:12;131.77;;;19.10;;
76292;SDS011;67256;51.154;4.164;2023-12-07T00:08:39;108.50;;;18.52;;
76292;SDS011;67256;51.154;4.164;2023-12-07T00:11:06;81.82;;;18.15;;
76292;SDS011;67256;51.154;4.164;2023-12-07T00:13:34;125.90;;;17.45;;
76292;SDS011;67256;51.154;4.164;2023-12-07T00:16:01;66.72;;;18.10;;
76292;SDS011;67256;51.154;4.164;2023-12-07T00:18:27;76.43;;;16.98;;
76292;SDS011;67256;51.154;4.164;2023-12-07T00:20:53;104.43;;;17.45;;
76292;SDS011;67256;51.154;4.164;2023-12-07T00:23:19;129.57;;;19.27;;
76292;SDS011;67256;51.154;4.164;2023-12-07T00:25:44;83.03;;;16.85;;
76292;SDS011;67256;51.154;4.164;2023-12-07T00:28:11;70.22;;;18.20;;
76292;SDS011;67256;51.154;4.164;2023-12-07T00:30:37;145.95;;;20.38;;
76292;SDS011;67256;51.154;4.164;2023-12-07T00:33:02;95.97;;;19.75;;
76292;SDS011;67256;51.154;4.164;2023-12-07T00:35:28;90.40;;;18.88;;
76292;SDS011;67256;51.154;4.164;2023-12-07T00:37:54;58.63;;;18.48;;
76292;SDS011;67256;51.154;4.164;2023-12-07T00:40:21;106.63;;;18.15;;
76292;SDS011;67256;51.154;4.164;2023-12-07T00:42:47;45.25;;;18.42;;
76292;SDS011;67256;51.154;4.164;2023-12-07T00:45:13;85.32;;;22.38;;
76292;SDS011;67256;51.154;4.164;2023-12-07T00:47:39;93.47;;;21.25;;
76292;SDS011;67256;51.154;4.164;2023-12-07T00:50:05;82.25;;;18.10;;
76292;SDS011;67256;51.154;4.164;2023-12-07T00:52:32;85.25;;;20.05;;
76292;SDS011;67256;51.154;4.164;2023-12-07T00:54:57;60.33;;;20.55;;
76292;SDS011;67256;51.154;4.164;2023-12-07T00:57:23;71.55;;;19.35;;
76292;SDS011;67256;51.154;4.164;2023-12-07T00:59:49;91.63;;;19.50;;
76292;SDS011;67256;51.154;4.164;2023-12-07T01:02:14;49.53;;;17.63;;
76292;SDS011;67256;51.154;4.164;2023-12-07T01:04:40;50.40;;;18.48;;
76292;SDS011;67256;51.154;4.164;2023-12-07T01:07:06;105.65;;;21.88;;
76292;SDS011;67256;51.154;4.164;2023-12-07T01:09:33;78.75;;;19.45;;
76292;SDS011;67256;51.154;4.164;2023-12-07T01:11:58;46.13;;;17.90;;
76292;SDS011;67256;51.154;4.164;2023-12-07T01:14:24;72.18;;;21.00;;
76292;SDS011;67256;51.154;4.164;2023-12-07T01:16:50;74.15;;;20.63;;
76292;SDS011;67256;51.154;4.164;2023-12-07T01:19:15;53.58;;;20.13;;
76292;SDS011;67256;51.154;4.164;2023-12-07T01:21:41;48.83;;;20.00;;
76292;SDS011;67256;51.154;4.164;2023-12-07T01:24:07;56.13;;;20.75;;
76292;SDS011;67256;51.154;4.164;2023-12-07T01:26:34;44.13;;;21.50;;
76292;SDS011;67256;51.154;4.164;2023-12-07T01:28:59;54.33;;;21.42;;
76292;SDS011;67256;51.154;4.164;2023-12-07T01:31:27;49.15;;;21.60;;
76292;SDS011;67256;51.154;4.164;2023-12-07T01:33:54;37.45;;;21.85;;
76292;SDS011;67256;51.154;4.164;2023-12-07T01:36:19;40.35;;;22.30;;
76292;SDS011;67256;51.154;4.164;2023-12-07T01:38:45;38.85;;;21.92;;
76292;SDS011;67256;51.154;4.164;2023-12-07T01:41:11;39.88;;;22.30;;
76292;SDS011;67256;51.154;4.164;2023-12-07T01:43:37;46.42;;;23.48;;
76292;SDS011;67256;51.154;4.164;2023-12-07T01:46:09;39.35;;;23.35;;
76292;SDS011;67256;51.154;4.164;2023-12-07T01:48:36;42.97;;;23.52;;
76292;SDS011;67256;51.154;4.164;2023-12-07T01:51:01;43.88;;;24.17;;
76292;SDS011;67256;51.154;4.164;2023-12-07T01:53:27;46.55;;;23.48;;
76292;SDS011;67256;51.154;4.164;2023-12-07T01:55:54;49.15;;;24.58;;
76292;SDS011;67256;51.154;4.164;2023-12-07T01:58:20;48.85;;;24.65;;
76292;SDS011;67256;51.154;4.164;2023-12-07T02:00:46;51.92;;;25.48;;
76292;SDS011;67256;51.154;4.164;2023-12-07T02:03:13;55.08;;;27.45;;
76292;SDS011;67256;51.154;4.164;2023-12-07T02:05:42;50.28;;;25.08;;
76292;SDS011;67256;51.154;4.164;2023-12-07T02:08:11;57.45;;;27.45;;
76292;SDS011;67256;51.154;4.164;2023-12-07T02:10:39;61.88;;;28.98;;
76292;SDS011;67256;51.154;4.164;2023-12-07T02:13:06;60.30;;;28.25;;
76292;SDS011;67256;51.154;4.164;2023-12-07T02:15:33;70.78;;;29.98;;
76292;SDS011;67256;51.154;4.164;2023-12-07T02:18:05;62.00;;;29.70;;
76292;SDS011;67256;51.154;4.164;2023-12-07T02:23:34;74.05;;;31.52;;
76292;SDS011;67256;51.154;4.164;2023-12-07T02:26:02;66.38;;;29.60;;
76292;SDS011;67256;51.154;4.164;2023-12-07T02:28:30;65.32;;;30.50;;
76292;SDS011;67256;51.154;4.164;2023-12-07T02:30:57;60.13;;;28.77;;
76292;SDS011;67256;51.154;4.164;2023-12-07T02:33:23;63.20;;;29.45;;
76292;SDS011;67256;51.154;4.164;2023-12-07T02:35:48;63.20;;;30.98;;
76292;SDS011;67256;51.154;4.164;2023-12-07T02:38:15;67.05;;;30.85;;
76292;SDS011;67256;51.154;4.164;2023-12-07T02:40:41;59.47;;;29.65;;
76292;SDS011;67256;51.154;4.164;2023-12-07T02:43:09;57.10;;;28.15;;
76292;SDS011;67256;51.154;4.164;2023-12-07T02:45:35;57.45;;;27.20;;
76292;SDS011;67256;51.154;4.164;2023-12-07T02:48:01;52.40;;;27.10;;
76292;SDS011;67256;51.154;4.164;2023-12-07T02:50:29;43.72;;;25.30;;
76292;SDS011;67256;51.154;4.164;2023-12-07T02:52:56;43.10;;;24.95;;
76292;SDS011;67256;51.154;4.164;2023-12-07T02:55:23;35.65;;;21.30;;
76292;SDS011;67256;51.154;4.164;2023-12-07T02:57:51;36.08;;;21.20;;
76292;SDS011;67256;51.154;4.164;2023-12-07T03:00:18;33.75;;;21.02;;
76292;SDS011;67256;51.154;4.164;2023-12-07T03:02:46;35.60;;;21.73;;
76292;SDS011;67256;51.154;4.164;2023-12-07T03:05:13;33.90;;;20.98;;
76292;SDS011;67256;51.154;4.164;2023-12-07T03:07:39;37.53;;;21.13;;
76292;SDS011;67256;51.154;4.164;2023-12-07T03:10:05;33.53;;;18.98;;
76292;SDS011;67256;51.154;4.164;2023-12-07T03:12:31;33.05;;;20.13;;
76292;SDS011;67256;51.154;4.164;2023-12-07T03:14:57;32.75;;;20.58;;
76292;SDS011;67256;51.154;4.164;2023-12-07T03:17:22;41.25;;;19.60;;
76292;SDS011;67256;51.154;4.164;2023-12-07T03:19:48;33.58;;;20.60;;
76292;SDS011;67256;51.154;4.164;2023-12-07T03:22:14;34.30;;;20.00;;
76292;SDS011;67256;51.154;4.164;2023-12-07T03:24:40;30.73;;;18.13;;
76292;SDS011;67256;51.154;4.164;2023-12-07T03:27:10;29.85;;;18.88;;
76292;SDS011;67256;51.154;4.164;2023-12-07T03:29:36;30.15;;;19.55;;
76292;SDS011;67256;51.154;4.164;2023-12-07T03:32:02;28.27;;;18.48;;
76292;SDS011;67256;51.154;4.164;2023-12-07T03:34:27;30.52;;;18.33;;
76292;SDS011;67256;51.154;4.164;2023-12-07T03:36:53;31.05;;;18.67;;
76292;SDS011;67256;51.154;4.164;2023-12-07T03:39:19;28.45;;;17.98;;
76292;SDS011;67256;51.154;4.164;2023-12-07T03:41:47;31.00;;;16.90;;
76292;SDS011;67256;51.154;4.164;2023-12-07T03:44:13;28.88;;;16.77;;
76292;SDS011;67256;51.154;4.164;2023-12-07T03:46:39;24.33;;;15.93;;
76292;SDS011;67256;51.154;4.164;2023-12-07T03:49:05;26.52;;;16.77;;
76292;SDS011;67256;51.154;4.164;2023-12-07T03:51:31;28.83;;;17.25;;
76292;SDS011;67256;51.154;4.164;2023-12-07T03:53:57;27.65;;;16.65;;
76292;SDS011;67256;51.154;4.164;2023-12-07T03:56:26;27.08;;;16.17;;
76292;SDS011;67256;51.154;4.164;2023-12-07T03:58:53;28.90;;;17.75;;
76292;SDS011;67256;51.154;4.164;2023-12-07T04:01:26;28.55;;;17.40;;
76292;SDS011;67256;51.154;4.164;2023-12-07T04:03:53;28.52;;;16.95;;
76292;SDS011;67256;51.154;4.164;2023-12-07T04:06:21;31.70;;;18.15;;
76292;SDS011;67256;51.154;4.164;2023-12-07T04:08:47;30.75;;;18.88;;
76292;SDS011;67256;51.154;4.164;2023-12-07T04:11:13;29.35;;;17.50;;
76292;SDS011;67256;51.154;4.164;2023-12-07T04:13:39;35.88;;;18.52;;
76292;SDS011;67256;51.154;4.164;2023-12-07T04:16:06;29.90;;;17.42;;
76292;SDS011;67256;51.154;4.164;2023-12-07T04:18:33;27.33;;;17.45;;
76292;SDS011;67256;51.154;4.164;2023-12-07T04:20:59;32.10;;;17.75;;
76292;SDS011;67256;51.154;4.164;2023-12-07T04:23:25;27.63;;;16.70;;
76292;SDS011;67256;51.154;4.164;2023-12-07T04:25:50;31.13;;;17.58;;
76292;SDS011;67256;51.154;4.164;2023-12-07T04:28:17;31.67;;;17.63;;
76292;SDS011;67256;51.154;4.164;2023-12-07T04:30:43;25.35;;;15.65;;
76292;SDS011;67256;51.154;4.164;2023-12-07T04:33:08;25.23;;;15.30;;
76292;SDS011;67256;51.154;4.164;2023-12-07T04:35:34;28.08;;;16.10;;
76292;SDS011;67256;51.154;4.164;2023-12-07T04:38:00;28.98;;;17.35;;
76292;SDS011;67256;51.154;4.164;2023-12-07T04:40:27;29.50;;;16.75;;
76292;SDS011;67256;51.154;4.164;2023-12-07T04:42:52;31.48;;;17.48;;
76292;SDS011;67256;51.154;4.164;2023-12-07T04:45:18;28.30;;;17.17;;
76292;SDS011;67256;51.154;4.164;2023-12-07T04:47:44;25.00;;;16.88;;
76292;SDS011;67256;51.154;4.164;2023-12-07T04:50:10;27.88;;;15.80;;
76292;SDS011;67256;51.154;4.164;2023-12-07T04:52:36;26.17;;;16.10;;
76292;SDS011;67256;51.154;4.164;2023-12-07T04:55:02;33.45;;;17.75;;
76292;SDS011;67256;51.154;4.164;2023-12-07T04:57:28;29.00;;;15.85;;
76292;SDS011;67256;51.154;4.164;2023-12-07T04:59:54;28.50;;;16.52;;
76292;SDS011;67256;51.154;4.164;2023-12-07T05:02:20;26.40;;;16.02;;
76292;SDS011;67256;51.154;4.164;2023-12-07T05:04:46;33.30;;;16.88;;
76292;SDS011;67256;51.154;4.164;2023-12-07T05:07:12;26.20;;;16.17;;
76292;SDS011;67256;51.154;4.164;2023-12-07T05:09:39;26.00;;;16.02;;
76292;SDS011;67256;51.154;4.164;2023-12-07T05:12:05;26.48;;;15.38;;
76292;SDS011;67256;51.154;4.164;2023-12-07T05:14:31;27.13;;;15.45;;
76292;SDS011;67256;51.154;4.164;2023-12-07T05:16:57;25.88;;;15.82;;
76292;SDS011;67256;51.154;4.164;2023-12-07T05:19:23;26.85;;;15.65;;
76292;SDS011;67256;51.154;4.164;2023-12-07T05:21:52;26.83;;;16.08;;
76292;SDS011;67256;51.154;4.164;2023-12-07T05:24:18;24.95;;;15.38;;
76292;SDS011;67256;51.154;4.164;2023-12-07T05:26:44;28.60;;;17.60;;
76292;SDS011;67256;51.154;4.164;2023-12-07T05:29:17;22.65;;;14.90;;
76292;SDS011;67256;51.154;4.164;2023-12-07T05:31:43;22.63;;;15.73;;
76292;SDS011;67256;51.154;4.164;2023-12-07T05:34:08;25.90;;;15.00;;
76292;SDS011;67256;51.154;4.164;2023-12-07T05:36:34;21.30;;;15.15;;
76292;SDS011;67256;51.154;4.164;2023-12-07T05:39:00;24.52;;;15.05;;
76292;SDS011;67256;51.154;4.164;2023-12-07T05:41:26;23.73;;;15.00;;
76292;SDS011;67256;51.154;4.164;2023-12-07T05:43:52;26.85;;;16.13;;
76292;SDS011;67256;51.154;4.164;2023-12-07T05:46:18;26.25;;;14.77;;
76292;SDS011;67256;51.154;4.164;2023-12-07T05:48:46;20.95;;;14.60;;
76292;SDS011;67256;51.154;4.164;2023-12-07T05:51:12;27.75;;;16.92;;
76292;SDS011;67256;51.154;4.164;2023-12-07T05:53:39;24.42;;;15.73;;
76292;SDS011;67256;51.154;4.164;2023-12-07T05:56:05;24.50;;;15.57;;
76292;SDS011;67256;51.154;4.164;2023-12-07T05:58:31;29.08;;;16.17;;
76292;SDS011;67256;51.154;4.164;2023-12-07T06:00:57;28.20;;;17.60;;
76292;SDS011;67256;51.154;4.164;2023-12-07T06:03:24;23.42;;;16.15;;
76292;SDS011;67256;51.154;4.164;2023-12-07T06:05:50;28.70;;;17.65;;
76292;SDS011;67256;51.154;4.164;2023-12-07T06:08:16;31.35;;;17.45;;
76292;SDS011;67256;51.154;4.164;2023-12-07T06:10:42;33.45;;;18.27;;
76292;SDS011;67256;51.154;4.164;2023-12-07T06:13:08;25.55;;;16.73;;
76292;SDS011;67256;51.154;4.164;2023-12-07T06:15:34;22.80;;;15.57;;
76292;SDS011;67256;51.154;4.164;2023-12-07T06:18:00;22.15;;;15.45;;
76292;SDS011;67256;51.154;4.164;2023-12-07T06:20:26;23.05;;;16.13;;
76292;SDS011;67256;51.154;4.164;2023-12-07T06:22:52;25.98;;;16.25;;
76292;SDS011;67256;51.154;4.164;2023-12-07T06:25:17;21.30;;;15.13;;
76292;SDS011;67256;51.154;4.164;2023-12-07T06:27:44;25.52;;;16.17;;
76292;SDS011;67256;51.154;4.164;2023-12-07T06:30:09;30.92;;;16.60;;
76292;SDS011;67256;51.154;4.164;2023-12-07T06:32:35;24.35;;;15.95;;
76292;SDS011;67256;51.154;4.164;2023-12-07T06:35:01;19.45;;;14.57;;
76292;SDS011;67256;51.154;4.164;2023-12-07T06:37:29;23.23;;;14.77;;
76292;SDS011;67256;51.154;4.164;2023-12-07T06:39:55;19.23;;;14.38;;
76292;SDS011;67256;51.154;4.164;2023-12-07T06:42:21;23.83;;;15.52;;
76292;SDS011;67256;51.154;4.164;2023-12-07T06:44:47;20.63;;;14.73;;
76292;SDS011;67256;51.154;4.164;2023-12-07T06:47:15;27.08;;;17.48;;
76292;SDS011;67256;51.154;4.164;2023-12-07T06:49:41;24.67;;;16.65;;
76292;SDS011;67256;51.154;4.164;2023-12-07T06:52:07;28.67;;;16.15;;
76292;SDS011;67256;51.154;4.164;2023-12-07T06:54:34;27.45;;;16.92;;
76292;SDS011;67256;51.154;4.164;2023-12-07T06:56:59;25.83;;;16.20;;
76292;SDS011;67256;51.154;4.164;2023-12-07T06:59:25;26.60;;;17.40;;
76292;SDS011;67256;51.154;4.164;2023-12-07T07:01:51;25.15;;;15.50;;
76292;SDS011;67256;51.154;4.164;2023-12-07T07:04:17;22.30;;;17.10;;
76292;SDS011;67256;51.154;4.164;2023-12-07T07:06:43;25.27;;;16.27;;
76292;SDS011;67256;51.154;4.164;2023-12-07T07:09:10;23.52;;;16.40;;
76292;SDS011;67256;51.154;4.164;2023-12-07T07:11:36;30.02;;;17.23;;
76292;SDS011;67256;51.154;4.164;2023-12-07T07:14:02;24.77;;;16.05;;
76292;SDS011;67256;51.154;4.164;2023-12-07T07:16:28;23.80;;;15.93;;
76292;SDS011;67256;51.154;4.164;2023-12-07T07:18:53;25.13;;;16.02;;
76292;SDS011;67256;51.154;4.164;2023-12-07T07:21:19;27.17;;;16.65;;
76292;SDS011;67256;51.154;4.164;2023-12-07T07:23:45;22.90;;;16.02;;
76292;SDS011;67256;51.154;4.164;2023-12-07T07:26:10;24.73;;;16.23;;
76292;SDS011;67256;51.154;4.164;2023-12-07T07:28:41;21.88;;;15.57;;
76292;SDS011;67256;51.154;4.164;2023-12-07T07:31:07;22.25;;;15.00;;
76292;SDS011;67256;51.154;4.164;2023-12-07T07:33:33;26.65;;;15.20;;
76292;SDS011;67256;51.154;4.164;2023-12-07T07:35:59;22.25;;;15.35;;
76292;SDS011;67256;51.154;4.164;2023-12-07T07:38:24;22.73;;;14.55;;
76292;SDS011;67256;51.154;4.164;2023-12-07T07:40:50;24.70;;;15.63;;
76292;SDS011;67256;51.154;4.164;2023-12-07T07:43:16;27.70;;;15.52;;
76292;SDS011;67256;51.154;4.164;2023-12-07T07:45:42;22.35;;;14.88;;
76292;SDS011;67256;51.154;4.164;2023-12-07T07:48:09;25.35;;;16.02;;
76292;SDS011;67256;51.154;4.164;2023-12-07T07:50:34;27.00;;;16.40;;
76292;SDS011;67256;51.154;4.164;2023-12-07T07:53:01;24.70;;;16.27;;
76292;SDS011;67256;51.154;4.164;2023-12-07T07:55:28;20.85;;;15.60;;
76292;SDS011;67256;51.154;4.164;2023-12-07T07:57:54;26.33;;;15.60;;
76292;SDS011;67256;51.154;4.164;2023-12-07T08:00:20;27.33;;;17.10;;
76292;SDS011;67256;51.154;4.164;2023-12-07T08:02:46;25.33;;;15.82;;
76292;SDS011;67256;51.154;4.164;2023-12-07T08:05:12;22.55;;;15.10;;
76292;SDS011;67256;51.154;4.164;2023-12-07T08:07:38;22.20;;;14.43;;
76292;SDS011;67256;51.154;4.164;2023-12-07T08:10:05;23.48;;;14.52;;
76292;SDS011;67256;51.154;4.164;2023-12-07T08:12:32;22.73;;;14.30;;
76292;SDS011;67256;51.154;4.164;2023-12-07T08:14:58;22.75;;;14.02;;
76292;SDS011;67256;51.154;4.164;2023-12-07T08:17:24;24.83;;;15.00;;
76292;SDS011;67256;51.154;4.164;2023-12-07T08:19:51;25.15;;;15.13;;
76292;SDS011;67256;51.154;4.164;2023-12-07T08:22:17;17.02;;;12.60;;
76292;SDS011;67256;51.154;4.164;2023-12-07T08:24:43;25.83;;;13.95;;
76292;SDS011;67256;51.154;4.164;2023-12-07T08:27:09;20.20;;;13.80;;
76292;SDS011;67256;51.154;4.164;2023-12-07T08:29:35;17.45;;;12.65;;
76292;SDS011;67256;51.154;4.164;2023-12-07T08:32:01;16.67;;;12.02;;
76292;SDS011;67256;51.154;4.164;2023-12-07T08:34:27;20.45;;;13.32;;
76292;SDS011;67256;51.154;4.164;2023-12-07T08:36:54;20.17;;;12.60;;
76292;SDS011;67256;51.154;4.164;2023-12-07T08:39:20;25.92;;;13.45;;
76292;SDS011;67256;51.154;4.164;2023-12-07T08:41:45;18.58;;;13.85;;
76292;SDS011;67256;51.154;4.164;2023-12-07T08:44:11;20.60;;;13.57;;
76292;SDS011;67256;51.154;4.164;2023-12-07T08:46:37;19.35;;;13.18;;
76292;SDS011;67256;51.154;4.164;2023-12-07T08:49:03;22.40;;;13.43;;
76292;SDS011;67256;51.154;4.164;2023-12-07T08:51:29;17.95;;;12.95;;
76292;SDS011;67256;51.154;4.164;2023-12-07T08:53:55;26.80;;;12.85;;
76292;SDS011;67256;51.154;4.164;2023-12-07T08:56:20;22.73;;;14.25;;
76292;SDS011;67256;51.154;4.164;2023-12-07T08:58:46;22.48;;;13.93;;
76292;SDS011;67256;51.154;4.164;2023-12-07T09:01:12;21.90;;;14.50;;
76292;SDS011;67256;51.154;4.164;2023-12-07T09:03:38;22.08;;;14.48;;
76292;SDS011;67256;51.154;4.164;2023-12-07T09:06:03;22.92;;;14.38;;
76292;SDS011;67256;51.154;4.164;2023-12-07T09:08:31;23.75;;;15.32;;
76292;SDS011;67256;51.154;4.164;2023-12-07T09:10:56;27.23;;;13.73;;
76292;SDS011;67256;51.154;4.164;2023-12-07T09:13:22;20.88;;;13.18;;
76292;SDS011;67256;51.154;4.164;2023-12-07T09:15:48;21.92;;;15.25;;
76292;SDS011;67256;51.154;4.164;2023-12-07T09:18:13;19.70;;;13.80;;
76292;SDS011;67256;51.154;4.164;2023-12-07T09:20:39;25.17;;;14.55;;
76292;SDS011;67256;51.154;4.164;2023-12-07T09:23:11;20.98;;;13.55;;
76292;SDS011;67256;51.154;4.164;2023-12-07T09:25:38;18.55;;;12.55;;
76292;SDS011;67256;51.154;4.164;2023-12-07T09:28:04;20.20;;;13.18;;
76292;SDS011;67256;51.154;4.164;2023-12-07T09:30:29;19.85;;;12.73;;
76292;SDS011;67256;51.154;4.164;2023-12-07T09:32:55;22.23;;;12.80;;
76292;SDS011;67256;51.154;4.164;2023-12-07T09:35:21;18.20;;;12.77;;
76292;SDS011;67256;51.154;4.164;2023-12-07T09:37:47;20.70;;;14.50;;
76292;SDS011;67256;51.154;4.164;2023-12-07T09:40:17;25.77;;;14.82;;
76292;SDS011;67256;51.154;4.164;2023-12-07T09:42:46;26.17;;;15.60;;
76292;SDS011;67256;51.154;4.164;2023-12-07T09:45:12;21.75;;;13.68;;
76292;SDS011;67256;51.154;4.164;2023-12-07T09:47:40;25.70;;;14.13;;
76292;SDS011;67256;51.154;4.164;2023-12-07T09:50:07;22.42;;;13.05;;
76292;SDS011;67256;51.154;4.164;2023-12-07T09:52:34;19.70;;;13.50;;
76292;SDS011;67256;51.154;4.164;2023-12-07T09:55:03;20.13;;;13.48;;
76292;SDS011;67256;51.154;4.164;2023-12-07T09:57:30;25.75;;;15.10;;
76292;SDS011;67256;51.154;4.164;2023-12-07T09:59:56;26.23;;;16.10;;
76292;SDS011;67256;51.154;4.164;2023-12-07T10:02:22;23.50;;;16.08;;
76292;SDS011;67256;51.154;4.164;2023-12-07T10:04:48;24.10;;;15.05;;
76292;SDS011;67256;51.154;4.164;2023-12-07T10:10:01;25.85;;;13.32;;
76292;SDS011;67256;51.154;4.164;2023-12-07T10:12:28;20.67;;;13.38;;
76292;SDS011;67256;51.154;4.164;2023-12-07T10:14:59;23.60;;;15.35;;
76292;SDS011;67256;51.154;4.164;2023-12-07T10:20:29;24.55;;;14.05;;
76292;SDS011;67256;51.154;4.164;2023-12-07T10:23:02;21.52;;;12.73;;
76292;SDS011;67256;51.154;4.164;2023-12-07T10:25:29;25.92;;;13.50;;
76292;SDS011;67256;51.154;4.164;2023-12-07T10:28:00;25.08;;;13.65;;
76292;SDS011;67256;51.154;4.164;2023-12-07T10:30:29;23.65;;;12.95;;
76292;SDS011;67256;51.154;4.164;2023-12-07T10:32:54;28.15;;;15.57;;
76292;SDS011;67256;51.154;4.164;2023-12-07T10:35:20;23.35;;;13.15;;
76292;SDS011;67256;51.154;4.164;2023-12-07T10:37:46;20.70;;;13.27;;
76292;SDS011;67256;51.154;4.164;2023-12-07T10:40:12;19.88;;;12.25;;
76292;SDS011;67256;51.154;4.164;2023-12-07T10:42:38;21.17;;;11.48;;
76292;SDS011;67256;51.154;4.164;2023-12-07T10:45:06;23.17;;;11.40;;
76292;SDS011;67256;51.154;4.164;2023-12-07T10:47:37;17.48;;;12.45;;
76292;SDS011;67256;51.154;4.164;2023-12-07T10:50:07;15.88;;;11.60;;
76292;SDS011;67256;51.154;4.164;2023-12-07T10:52:39;16.65;;;10.85;;
76292;SDS011;67256;51.154;4.164;2023-12-07T10:55:13;17.73;;;11.25;;
76292;SDS011;67256;51.154;4.164;2023-12-07T10:57:44;19.70;;;11.88;;
76292;SDS011;67256;51.154;4.164;2023-12-07T11:00:11;22.42;;;13.27;;
76292;SDS011;67256;51.154;4.164;2023-12-07T11:02:37;20.42;;;11.75;;
76292;SDS011;67256;51.154;4.164;2023-12-07T11:05:06;19.90;;;11.70;;
76292;SDS011;67256;51.154;4.164;2023-12-07T11:07:45;18.90;;;11.10;;
76292;SDS011;67256;51.154;4.164;2023-12-07T11:10:34;16.60;;;10.98;;
76292;SDS011;67256;51.154;4.164;2023-12-07T11:13:11;22.30;;;12.20;;
76292;SDS011;67256;51.154;4.164;2023-12-07T11:15:47;24.52;;;11.90;;
76292;SDS011;67256;51.154;4.164;2023-12-07T11:18:13;16.35;;;10.82;;
76292;SDS011;67256;51.154;4.164;2023-12-07T11:20:43;19.73;;;11.43;;
76292;SDS011;67256;51.154;4.164;2023-12-07T11:23:11;22.10;;;11.48;;
76292;SDS011;67256;51.154;4.164;2023-12-07T11:25:41;18.60;;;10.82;;
76292;SDS011;67256;51.154;4.164;2023-12-07T11:28:10;15.32;;;10.55;;
76292;SDS011;67256;51.154;4.164;2023-12-07T11:30:37;19.67;;;11.55;;
76292;SDS011;67256;51.154;4.164;2023-12-07T11:33:05;16.48;;;10.27;;
76292;SDS011;67256;51.154;4.164;2023-12-07T11:35:32;15.70;;;9.57;;
76292;SDS011;67256;51.154;4.164;2023-12-07T11:38:08;13.15;;;9.70;;
76292;SDS011;67256;51.154;4.164;2023-12-07T11:40:42;17.35;;;10.43;;
76292;SDS011;67256;51.154;4.164;2023-12-07T11:43:16;17.27;;;9.77;;
76292;SDS011;67256;51.154;4.164;2023-12-07T11:45:48;18.63;;;10.20;;
76292;SDS011;67256;51.154;4.164;2023-12-07T11:48:15;17.85;;;9.57;;
76292;SDS011;67256;51.154;4.164;2023-12-07T11:53:37;13.80;;;9.88;;
76292;SDS011;67256;51.154;4.164;2023-12-07T11:56:04;17.02;;;10.00;;
76292;SDS011;67256;51.154;4.164;2023-12-07T11:58:31;17.77;;;9.02;;
76292;SDS011;67256;51.154;4.164;2023-12-07T12:00:58;26.15;;;10.75;;
76292;SDS011;67256;51.154;4.164;2023-12-07T12:03:25;13.90;;;9.55;;
76292;SDS011;67256;51.154;4.164;2023-12-07T12:05:52;18.73;;;9.48;;
76292;SDS011;67256;51.154;4.164;2023-12-07T12:08:19;14.95;;;9.85;;
76292;SDS011;67256;51.154;4.164;2023-12-07T12:10:45;17.70;;;10.23;;
76292;SDS011;67256;51.154;4.164;2023-12-07T12:13:14;16.88;;;10.68;;
76292;SDS011;67256;51.154;4.164;2023-12-07T12:15:40;18.92;;;9.68;;
76292;SDS011;67256;51.154;4.164;2023-12-07T12:18:06;19.85;;;9.52;;
76292;SDS011;67256;51.154;4.164;2023-12-07T12:20:33;14.10;;;8.35;;
76292;SDS011;67256;51.154;4.164;2023-12-07T12:22:59;16.70;;;9.38;;
76292;SDS011;67256;51.154;4.164;2023-12-07T12:25:26;14.02;;;7.75;;
76292;SDS011;67256;51.154;4.164;2023-12-07T12:28:01;22.08;;;8.30;;
76292;SDS011;67256;51.154;4.164;2023-12-07T12:30:28;14.98;;;8.10;;
76292;SDS011;67256;51.154;4.164;2023-12-07T12:32:55;13.25;;;7.38;;
76292;SDS011;67256;51.154;4.164;2023-12-07T12:35:21;11.00;;;8.00;;
76292;SDS011;67256;51.154;4.164;2023-12-07T12:37:47;15.95;;;7.50;;
76292;SDS011;67256;51.154;4.164;2023-12-07T12:40:17;13.05;;;8.27;;
76292;SDS011;67256;51.154;4.164;2023-12-07T12:42:49;12.95;;;7.75;;
76292;SDS011;67256;51.154;4.164;2023-12-07T12:45:17;16.63;;;8.10;;
76292;SDS011;67256;51.154;4.164;2023-12-07T12:47:44;17.45;;;7.45;;
76292;SDS011;67256;51.154;4.164;2023-12-07T12:50:10;11.50;;;7.40;;
76292;SDS011;67256;51.154;4.164;2023-12-07T12:52:37;10.82;;;6.63;;
76292;SDS011;67256;51.154;4.164;2023-12-07T12:55:07;16.65;;;7.65;;
76292;SDS011;67256;51.154;4.164;2023-12-07T12:57:36;16.73;;;7.75;;
76292;SDS011;67256;51.154;4.164;2023-12-07T13:00:03;14.13;;;7.70;;
76292;SDS011;67256;51.154;4.164;2023-12-07T13:02:32;10.97;;;7.07;;
76292;SDS011;67256;51.154;4.164;2023-12-07T13:04:58;14.95;;;7.60;;
76292;SDS011;67256;51.154;4.164;2023-12-07T13:07:24;14.38;;;8.20;;
76292;SDS011;67256;51.154;4.164;2023-12-07T13:09:51;19.40;;;8.13;;
76292;SDS011;67256;51.154;4.164;2023-12-07T13:12:17;12.00;;;8.13;;
76292;SDS011;67256;51.154;4.164;2023-12-07T13:14:43;12.85;;;7.68;;
76292;SDS011;67256;51.154;4.164;2023-12-07T13:17:09;13.63;;;7.43;;
76292;SDS011;67256;51.154;4.164;2023-12-07T13:19:34;14.57;;;8.23;;
76292;SDS011;67256;51.154;4.164;2023-12-07T13:22:01;13.80;;;6.70;;
76292;SDS011;67256;51.154;4.164;2023-12-07T13:24:28;15.02;;;7.15;;
76292;SDS011;67256;51.154;4.164;2023-12-07T13:26:54;13.82;;;7.47;;
76292;SDS011;67256;51.154;4.164;2023-12-07T13:29:21;11.77;;;7.50;;
76292;SDS011;67256;51.154;4.164;2023-12-07T13:31:48;12.40;;;7.63;;
76292;SDS011;67256;51.154;4.164;2023-12-07T13:34:14;12.75;;;7.10;;
76292;SDS011;67256;51.154;4.164;2023-12-07T13:36:40;15.57;;;7.22;;
76292;SDS011;67256;51.154;4.164;2023-12-07T13:39:06;15.10;;;6.45;;
76292;SDS011;67256;51.154;4.164;2023-12-07T13:41:33;10.05;;;6.28;;
76292;SDS011;67256;51.154;4.164;2023-12-07T13:43:59;15.48;;;6.97;;
76292;SDS011;67256;51.154;4.164;2023-12-07T13:48:56;10.15;;;6.35;;
76292;SDS011;67256;51.154;4.164;2023-12-07T13:51:22;12.48;;;6.38;;
76292;SDS011;67256;51.154;4.164;2023-12-07T13:53:48;13.43;;;6.32;;
76292;SDS011;67256;51.154;4.164;2023-12-07T13:56:20;11.52;;;6.32;;
76292;SDS011;67256;51.154;4.164;2023-12-07T13:58:46;11.00;;;6.45;;
76292;SDS011;67256;51.154;4.164;2023-12-07T14:01:11;11.30;;;6.07;;
76292;SDS011;67256;51.154;4.164;2023-12-07T14:03:37;11.52;;;6.68;;
76292;SDS011;67256;51.154;4.164;2023-12-07T14:06:03;12.82;;;6.03;;
76292;SDS011;67256;51.154;4.164;2023-12-07T14:08:29;11.45;;;6.38;;
76292;SDS011;67256;51.154;4.164;2023-12-07T14:10:56;11.88;;;6.60;;
76292;SDS011;67256;51.154;4.164;2023-12-07T14:13:22;10.18;;;6.03;;
76292;SDS011;67256;51.154;4.164;2023-12-07T14:15:50;14.27;;;7.25;;
76292;SDS011;67256;51.154;4.164;2023-12-07T14:18:16;10.55;;;6.22;;
76292;SDS011;67256;51.154;4.164;2023-12-07T14:20:42;16.67;;;7.28;;
76292;SDS011;67256;51.154;4.164;2023-12-07T14:23:08;14.02;;;6.65;;
76292;SDS011;67256;51.154;4.164;2023-12-07T14:25:34;9.57;;;6.32;;
76292;SDS011;67256;51.154;4.164;2023-12-07T14:28:01;11.93;;;6.80;;
76292;SDS011;67256;51.154;4.164;2023-12-07T14:30:26;12.40;;;6.72;;
76292;SDS011;67256;51.154;4.164;2023-12-07T14:32:52;17.08;;;7.28;;
76292;SDS011;67256;51.154;4.164;2023-12-07T14:35:18;11.85;;;6.53;;